PWSweather.com
Personal Weather Stations
Station Observations

PoschiavoCH

Lat: 46.31962499999999, Lon: 10.066551000000004

Elevation: 3517

Station Type: WH 1080

http://www.meteoposchiavo.com

High Low Average
Temperature 42.0°F5.6°C 37.0°F2.8°C 39.6°F4.2°C
Dew Point 40.9°F4.9°C 33.4°F0.8°C 37.8°F3.2°C
Winds 3.5 mph 5.6 kmh Calm Calm Calm NWCalm NW
Wind Gusts 6.9 mph11.1 kmh -- 1.0 mph1.6 kmh
Humidity 99% 78% 94%
Pressure 26.51 in897.7 mb 26.28 in889.9 mb -
Precipitation 0.56 in14.2 mm - -
Hour Temp Dew Point Humidity Winds Wind Gusts Pressure Precip Precip Rate Daily Precip Total
12:00 AM 40.0°F4.4°C 34.0°F1.1°C 79% Calm Calm 1.2 mph1.9 kmh 26.51 in897.7 mb - 0.00 in0.0 mm 0.00 in0.0 mm
12:10 AM 40.0°F4.4°C 33.7°F0.9°C 78% Calm Calm 1.2 mph1.9 kmh 26.50 in897.4 mb - 0.00 in0.0 mm 0.00 in0.0 mm
12:15 AM 40.0°F4.4°C 34.0°F1.1°C 79% Calm Calm -- 26.51 in897.7 mb - 0.00 in0.0 mm 0.00 in0.0 mm
12:20 AM 40.0°F4.4°C 34.3°F1.3°C 80% Calm Calm -- 26.50 in897.4 mb - 0.00 in0.0 mm 0.00 in0.0 mm
12:25 AM 41.0°F5.0°C 34.7°F1.5°C 78% Calm Calm -- 26.50 in897.4 mb - 0.00 in0.0 mm 0.00 in0.0 mm
12:30 AM 41.0°F5.0°C 34.7°F1.5°C 78% Calm Calm -- 26.49 in897.1 mb - 0.00 in0.0 mm 0.00 in0.0 mm
12:35 AM 40.0°F4.4°C 33.7°F0.9°C 78% Calm Calm 1.2 mph1.9 kmh 26.50 in897.4 mb - 0.00 in0.0 mm 0.00 in0.0 mm
12:40 AM 40.0°F4.4°C 33.7°F0.9°C 78% Calm Calm -- 26.49 in897.1 mb - 0.00 in0.0 mm 0.00 in0.0 mm
12:45 AM 40.0°F4.4°C 34.0°F1.1°C 79% Calm Calm -- 26.49 in897.1 mb - 0.00 in0.0 mm 0.00 in0.0 mm
12:50 AM 40.0°F4.4°C 34.3°F1.3°C 80% Calm Calm -- 26.49 in897.1 mb - 0.00 in0.0 mm 0.00 in0.0 mm
12:55 AM 40.0°F4.4°C 34.6°F1.4°C 81% Calm Calm -- 26.49 in897.1 mb - 0.00 in0.0 mm 0.00 in0.0 mm
01:00 AM 40.0°F4.4°C 34.6°F1.4°C 81% Calm Calm -- 26.49 in897.1 mb - 0.00 in0.0 mm 0.00 in0.0 mm
01:10 AM 40.0°F4.4°C 34.3°F1.3°C 80% Calm Calm -- 26.49 in897.1 mb - 0.00 in0.0 mm 0.00 in0.0 mm
01:15 AM 40.0°F4.4°C 34.0°F1.1°C 79% Calm Calm -- 26.49 in897.1 mb - 0.00 in0.0 mm 0.00 in0.0 mm
01:20 AM 39.0°F3.9°C 33.7°F0.9°C 81% Calm Calm -- 26.49 in897.1 mb - 0.00 in0.0 mm 0.00 in0.0 mm
01:25 AM 39.0°F3.9°C 33.7°F0.9°C 81% Calm Calm 1.2 mph1.9 kmh 26.49 in897.1 mb - 0.00 in0.0 mm 0.00 in0.0 mm
01:30 AM 39.0°F3.9°C 33.4°F0.8°C 80% Calm Calm -- 26.49 in897.1 mb - 0.00 in0.0 mm 0.00 in0.0 mm
01:35 AM 40.0°F4.4°C 34.3°F1.3°C 80% Calm Calm -- 26.49 in897.1 mb - 0.00 in0.0 mm 0.00 in0.0 mm
01:40 AM 40.0°F4.4°C 34.3°F1.3°C 80% 1.2 mph NW1.9 kmh NW 2.3 mph3.7 kmh 26.49 in897.1 mb - 0.00 in0.0 mm 0.00 in0.0 mm
01:45 AM 40.0°F4.4°C 34.3°F1.3°C 80% Calm Calm 2.3 mph3.7 kmh 26.49 in897.1 mb - 0.00 in0.0 mm 0.00 in0.0 mm
01:50 AM 40.0°F4.4°C 34.3°F1.3°C 80% Calm Calm 1.2 mph1.9 kmh 26.49 in897.1 mb - 0.00 in0.0 mm 0.00 in0.0 mm
01:55 AM 40.0°F4.4°C 34.3°F1.3°C 80% Calm Calm -- 26.48 in896.7 mb - 0.00 in0.0 mm 0.00 in0.0 mm
02:00 AM 39.0°F3.9°C 33.7°F0.9°C 81% Calm Calm -- 26.48 in896.7 mb - 0.00 in0.0 mm 0.00 in0.0 mm
02:10 AM 39.0°F3.9°C 34.0°F1.1°C 82% Calm Calm -- 26.49 in897.1 mb - 0.00 in0.0 mm 0.00 in0.0 mm
02:15 AM 39.0°F3.9°C 34.0°F1.1°C 82% Calm Calm 1.2 mph1.9 kmh 26.48 in896.7 mb - 0.00 in0.0 mm 0.00 in0.0 mm
02:20 AM 39.0°F3.9°C 34.6°F1.4°C 84% Calm Calm -- 26.49 in897.1 mb - 0.00 in0.0 mm 0.00 in0.0 mm
02:25 AM 39.0°F3.9°C 34.3°F1.3°C 83% Calm Calm -- 26.48 in896.7 mb - 0.00 in0.0 mm 0.00 in0.0 mm
02:30 AM 39.0°F3.9°C 34.0°F1.1°C 82% Calm Calm -- 26.48 in896.7 mb - 0.00 in0.0 mm 0.00 in0.0 mm
02:35 AM 39.0°F3.9°C 34.3°F1.3°C 83% Calm Calm -- 26.47 in896.4 mb - 0.00 in0.0 mm 0.00 in0.0 mm
02:40 AM 39.0°F3.9°C 34.3°F1.3°C 83% Calm Calm -- 26.47 in896.4 mb - 0.00 in0.0 mm 0.00 in0.0 mm
02:45 AM 39.0°F3.9°C 34.0°F1.1°C 82% Calm Calm -- 26.48 in896.7 mb - 0.00 in0.0 mm 0.00 in0.0 mm
02:50 AM 39.0°F3.9°C 34.3°F1.3°C 83% Calm Calm -- 26.47 in896.4 mb - 0.00 in0.0 mm 0.00 in0.0 mm
02:55 AM 39.0°F3.9°C 34.6°F1.4°C 84% Calm Calm -- 26.47 in896.4 mb - 0.00 in0.0 mm 0.00 in0.0 mm
03:00 AM 39.0°F3.9°C 34.6°F1.4°C 84% Calm Calm -- 26.46 in896.0 mb - 0.00 in0.0 mm 0.00 in0.0 mm
03:10 AM 39.0°F3.9°C 35.5°F1.9°C 87% Calm Calm -- 26.46 in896.0 mb - 0.00 in0.0 mm 0.00 in0.0 mm
03:15 AM 39.0°F3.9°C 35.5°F1.9°C 87% Calm Calm -- 26.45 in895.7 mb - 0.00 in0.0 mm 0.00 in0.0 mm
03:20 AM 39.0°F3.9°C 35.5°F1.9°C 87% Calm Calm -- 26.45 in895.7 mb - 0.00 in0.0 mm 0.00 in0.0 mm
03:25 AM 39.0°F3.9°C 35.7°F2.1°C 88% Calm Calm -- 26.44 in895.4 mb - 0.00 in0.0 mm 0.00 in0.0 mm
03:30 AM 39.0°F3.9°C 35.7°F2.1°C 88% Calm Calm -- 26.44 in895.4 mb - 0.00 in0.0 mm 0.00 in0.0 mm
03:35 AM 39.0°F3.9°C 35.7°F2.1°C 88% Calm Calm -- 26.44 in895.4 mb - 0.00 in0.0 mm 0.00 in0.0 mm
03:40 AM 39.0°F3.9°C 34.9°F1.6°C 85% Calm Calm -- 26.43 in895.0 mb - 0.00 in0.0 mm 0.00 in0.0 mm
03:45 AM 39.0°F3.9°C 34.6°F1.4°C 84% Calm Calm -- 26.43 in895.0 mb - 0.00 in0.0 mm 0.00 in0.0 mm
03:50 AM 40.0°F4.4°C 35.3°F1.8°C 83% Calm Calm -- 26.42 in894.7 mb - 0.00 in0.0 mm 0.00 in0.0 mm
03:55 AM 39.0°F3.9°C 34.9°F1.6°C 85% Calm Calm -- 26.42 in894.7 mb - 0.00 in0.0 mm 0.00 in0.0 mm
04:00 AM 39.0°F3.9°C 34.9°F1.6°C 85% Calm Calm -- 26.42 in894.7 mb - 0.00 in0.0 mm 0.00 in0.0 mm
04:10 AM 40.0°F4.4°C 35.9°F2.2°C 85% Calm Calm -- 26.41 in894.3 mb - 0.00 in0.0 mm 0.00 in0.0 mm
04:15 AM 39.3°F4.1°C 35.4°F1.9°C 86% Calm Calm -- 26.41 in894.3 mb - 0.00 in0.0 mm 0.00 in0.0 mm
04:20 AM 39.0°F3.9°C 35.5°F1.9°C 87% Calm Calm -- 26.41 in894.3 mb - 0.00 in0.0 mm 0.00 in0.0 mm
04:25 AM 39.0°F3.9°C 35.5°F1.9°C 87% Calm Calm -- 26.40 in894.0 mb - 0.00 in0.0 mm 0.00 in0.0 mm
04:30 AM 39.0°F3.9°C 35.7°F2.1°C 88% Calm Calm -- 26.40 in894.0 mb - 0.00 in0.0 mm 0.00 in0.0 mm
04:35 AM 39.0°F3.9°C 36.0°F2.2°C 89% Calm Calm -- 26.40 in894.0 mb - 0.00 in0.0 mm 0.00 in0.0 mm
04:40 AM 39.0°F3.9°C 36.3°F2.4°C 90% Calm Calm -- 26.40 in894.0 mb - 0.00 in0.0 mm 0.00 in0.0 mm
04:45 AM 39.0°F3.9°C 36.3°F2.4°C 90% Calm Calm -- 26.40 in894.0 mb - 0.00 in0.0 mm 0.00 in0.0 mm
04:50 AM 38.0°F3.3°C 35.0°F1.7°C 89% Calm Calm -- 26.40 in894.0 mb - 0.00 in0.0 mm 0.00 in0.0 mm
04:55 AM 37.0°F2.8°C 34.6°F1.4°C 91% Calm Calm -- 26.40 in894.0 mb - 0.00 in0.0 mm 0.00 in0.0 mm
05:00 AM 37.0°F2.8°C 34.6°F1.4°C 91% Calm Calm -- 26.39 in893.7 mb - 0.00 in0.0 mm 0.00 in0.0 mm
05:10 AM 37.0°F2.8°C 35.2°F1.8°C 93% Calm Calm -- 26.40 in894.0 mb - 0.00 in0.0 mm 0.00 in0.0 mm
05:15 AM 38.0°F3.3°C 36.4°F2.4°C 94% Calm Calm -- 26.40 in894.0 mb - 0.00 in0.0 mm 0.00 in0.0 mm
05:20 AM 37.0°F2.8°C 34.9°F1.6°C 92% Calm Calm -- 26.39 in893.7 mb - 0.00 in0.0 mm 0.00 in0.0 mm
05:25 AM 37.0°F2.8°C 34.9°F1.6°C 92% Calm Calm -- 26.38 in893.3 mb - 0.01 in0.3 mm 0.01 in0.3 mm
05:30 AM 37.0°F2.8°C 35.4°F1.9°C 94% Calm Calm -- 26.38 in893.3 mb - 0.01 in0.3 mm 0.01 in0.3 mm
05:35 AM 37.0°F2.8°C 35.2°F1.8°C 93% Calm Calm -- 26.38 in893.3 mb - 0.01 in0.3 mm 0.01 in0.3 mm
05:40 AM 37.0°F2.8°C 35.2°F1.8°C 93% Calm Calm -- 26.37 in893.0 mb - 0.01 in0.3 mm 0.01 in0.3 mm
05:45 AM 37.0°F2.8°C 35.7°F2.1°C 95% Calm Calm -- 26.37 in893.0 mb - 0.01 in0.3 mm 0.01 in0.3 mm
05:50 AM 37.0°F2.8°C 35.2°F1.8°C 93% Calm Calm -- 26.36 in892.7 mb - 0.01 in0.3 mm 0.01 in0.3 mm
05:55 AM 37.0°F2.8°C 35.4°F1.9°C 94% Calm Calm -- 26.36 in892.7 mb - 0.01 in0.3 mm 0.01 in0.3 mm
06:00 AM 37.0°F2.8°C 35.4°F1.9°C 94% Calm Calm -- 26.36 in892.7 mb - 0.01 in0.3 mm 0.01 in0.3 mm
06:10 AM 38.0°F3.3°C 36.2°F2.3°C 93% Calm Calm -- 26.36 in892.7 mb - 0.01 in0.3 mm 0.01 in0.3 mm
06:15 AM 38.0°F3.3°C 36.4°F2.4°C 94% Calm Calm -- 26.35 in892.3 mb - 0.01 in0.3 mm 0.01 in0.3 mm
06:20 AM 38.0°F3.3°C 36.4°F2.4°C 94% Calm Calm -- 26.35 in892.3 mb - 0.02 in0.5 mm 0.02 in0.5 mm
06:25 AM 37.0°F2.8°C 35.4°F1.9°C 94% Calm Calm -- 26.35 in892.3 mb - 0.01 in0.3 mm 0.02 in0.5 mm
06:30 AM 37.0°F2.8°C 35.7°F2.1°C 95% Calm Calm -- 26.36 in892.7 mb - 0.01 in0.3 mm 0.02 in0.5 mm
06:35 AM 37.0°F2.8°C 35.7°F2.1°C 95% Calm Calm -- 26.35 in892.3 mb - 0.01 in0.3 mm 0.02 in0.5 mm
06:40 AM 37.0°F2.8°C 35.7°F2.1°C 95% Calm Calm -- 26.35 in892.3 mb - 0.01 in0.3 mm 0.02 in0.5 mm
06:45 AM 37.0°F2.8°C 35.7°F2.1°C 95% Calm Calm -- 26.34 in892.0 mb - 0.01 in0.3 mm 0.02 in0.5 mm
06:50 AM 37.0°F2.8°C 35.7°F2.1°C 95% Calm Calm -- 26.34 in892.0 mb - 0.02 in0.5 mm 0.03 in0.8 mm
06:55 AM 37.0°F2.8°C 36.0°F2.2°C 96% Calm Calm -- 26.34 in892.0 mb - 0.02 in0.5 mm 0.03 in0.8 mm
07:00 AM 37.0°F2.8°C 36.0°F2.2°C 96% Calm Calm -- 26.33 in891.6 mb - 0.02 in0.5 mm 0.03 in0.8 mm
07:10 AM 37.0°F2.8°C 36.0°F2.2°C 96% Calm Calm -- 26.32 in891.3 mb - 0.03 in0.8 mm 0.04 in1.0 mm
07:15 AM 38.0°F3.3°C 37.0°F2.8°C 96% Calm Calm -- 26.33 in891.6 mb - 0.04 in1.0 mm 0.05 in1.3 mm
07:20 AM 38.0°F3.3°C 37.2°F2.9°C 97% Calm Calm -- 26.34 in892.0 mb - 0.03 in0.8 mm 0.05 in1.3 mm
07:25 AM 38.0°F3.3°C 37.2°F2.9°C 97% Calm Calm -- 26.33 in891.6 mb - 0.03 in0.8 mm 0.05 in1.3 mm
07:30 AM 38.0°F3.3°C 37.0°F2.8°C 96% Calm Calm -- 26.32 in891.3 mb - 0.04 in1.0 mm 0.06 in1.5 mm
07:35 AM 38.0°F3.3°C 37.0°F2.8°C 96% Calm Calm -- 26.32 in891.3 mb - 0.04 in1.0 mm 0.06 in1.5 mm
07:40 AM 38.0°F3.3°C 37.0°F2.8°C 96% Calm Calm -- 26.32 in891.3 mb - 0.04 in1.0 mm 0.06 in1.5 mm
07:45 AM 39.0°F3.9°C 37.7°F3.2°C 95% Calm Calm -- 26.33 in891.6 mb - 0.04 in1.0 mm 0.06 in1.5 mm
07:50 AM 39.0°F3.9°C 37.7°F3.2°C 95% Calm Calm -- 26.32 in891.3 mb - 0.04 in1.0 mm 0.06 in1.5 mm
07:55 AM 38.0°F3.3°C 37.0°F2.8°C 96% Calm Calm -- 26.32 in891.3 mb - 0.03 in0.8 mm 0.06 in1.5 mm
08:00 AM 38.0°F3.3°C 37.0°F2.8°C 96% Calm Calm -- 26.31 in891.0 mb - 0.03 in0.8 mm 0.06 in1.5 mm
08:10 AM 38.0°F3.3°C 37.0°F2.8°C 96% Calm Calm -- 26.33 in891.6 mb - 0.03 in0.8 mm 0.07 in1.8 mm
08:15 AM 38.7°F3.7°C 37.7°F3.2°C 96% Calm Calm -- 26.32 in891.3 mb - 0.02 in0.5 mm 0.07 in1.8 mm
08:20 AM 39.0°F3.9°C 38.0°F3.3°C 96% Calm Calm -- 26.32 in891.3 mb - 0.02 in0.5 mm 0.07 in1.8 mm
08:25 AM 39.0°F3.9°C 38.0°F3.3°C 96% Calm Calm -- 26.32 in891.3 mb - 0.02 in0.5 mm 0.07 in1.8 mm
08:30 AM 39.0°F3.9°C 38.0°F3.3°C 96% Calm Calm -- 26.32 in891.3 mb - 0.03 in0.8 mm 0.08 in2.0 mm
08:35 AM 39.0°F3.9°C 38.2°F3.4°C 97% Calm Calm -- 26.31 in891.0 mb - 0.02 in0.5 mm 0.08 in2.0 mm
08:40 AM 39.0°F3.9°C 38.2°F3.4°C 97% Calm Calm -- 26.31 in891.0 mb - 0.02 in0.5 mm 0.08 in2.0 mm
08:45 AM 39.0°F3.9°C 38.2°F3.4°C 97% Calm Calm -- 26.31 in891.0 mb - 0.03 in0.8 mm 0.09 in2.3 mm
08:50 AM 40.0°F4.4°C 39.2°F4.0°C 97% Calm Calm -- 26.31 in891.0 mb - 0.03 in0.8 mm 0.09 in2.3 mm
08:55 AM 40.0°F4.4°C 39.0°F3.9°C 96% 1.2 mph N1.9 kmh N 2.3 mph3.7 kmh 26.31 in891.0 mb - 0.03 in0.8 mm 0.09 in2.3 mm
09:00 AM 40.0°F4.4°C 39.0°F3.9°C 96% 1.2 mph NW1.9 kmh NW 2.3 mph3.7 kmh 26.31 in891.0 mb - 0.03 in0.8 mm 0.09 in2.3 mm
09:10 AM 40.0°F4.4°C 39.0°F3.9°C 96% Calm Calm -- 26.30 in890.6 mb - 0.02 in0.5 mm 0.09 in2.3 mm
09:15 AM 41.0°F5.0°C 39.7°F4.3°C 95% 2.3 mph N3.7 kmh N 3.5 mph5.6 kmh 26.31 in891.0 mb - 0.03 in0.8 mm 0.10 in2.5 mm
09:20 AM 41.0°F5.0°C 39.7°F4.3°C 95% Calm Calm -- 26.31 in891.0 mb - 0.03 in0.8 mm 0.10 in2.5 mm
09:25 AM 41.0°F5.0°C 39.7°F4.3°C 95% 1.2 mph NW1.9 kmh NW 1.2 mph1.9 kmh 26.30 in890.6 mb - 0.03 in0.8 mm 0.10 in2.5 mm
09:30 AM 41.0°F5.0°C 39.7°F4.3°C 95% 3.5 mph NW5.6 kmh NW 5.8 mph9.3 kmh 26.31 in891.0 mb - 0.02 in0.5 mm 0.10 in2.5 mm
09:35 AM 41.0°F5.0°C 39.4°F4.1°C 94% 1.2 mph NNW1.9 kmh NNW 2.3 mph3.7 kmh 26.31 in891.0 mb - 0.03 in0.8 mm 0.11 in2.8 mm
09:40 AM 41.0°F5.0°C 39.4°F4.1°C 94% 1.2 mph NNW1.9 kmh NNW 1.2 mph1.9 kmh 26.30 in890.6 mb - 0.03 in0.8 mm 0.11 in2.8 mm
09:45 AM 41.0°F5.0°C 39.4°F4.1°C 94% 1.2 mph WNW1.9 kmh WNW 3.5 mph5.6 kmh 26.30 in890.6 mb - 0.02 in0.5 mm 0.11 in2.8 mm
09:50 AM 41.0°F5.0°C 39.4°F4.1°C 94% 1.2 mph WNW1.9 kmh WNW 3.5 mph5.6 kmh 26.30 in890.6 mb - 0.02 in0.5 mm 0.11 in2.8 mm
09:55 AM 41.0°F5.0°C 39.1°F3.9°C 93% Calm Calm 1.2 mph1.9 kmh 26.30 in890.6 mb - 0.02 in0.5 mm 0.11 in2.8 mm
10:00 AM 41.0°F5.0°C 39.4°F4.1°C 94% Calm Calm -- 26.29 in890.3 mb - 0.02 in0.5 mm 0.11 in2.8 mm
10:10 AM 41.0°F5.0°C 39.7°F4.3°C 95% Calm Calm 1.2 mph1.9 kmh 26.29 in890.3 mb - 0.03 in0.8 mm 0.12 in3.0 mm
10:15 AM 41.0°F5.0°C 39.9°F4.4°C 96% 1.2 mph NNW1.9 kmh NNW 2.3 mph3.7 kmh 26.29 in890.3 mb - 0.03 in0.8 mm 0.13 in3.3 mm
10:20 AM 42.0°F5.6°C 40.1°F4.5°C 93% 2.3 mph NW3.7 kmh NW 2.3 mph3.7 kmh 26.30 in890.6 mb - 0.03 in0.8 mm 0.13 in3.3 mm
10:25 AM 42.0°F5.6°C 40.4°F4.7°C 94% 2.3 mph NW3.7 kmh NW 3.5 mph5.6 kmh 26.28 in889.9 mb - 0.03 in0.8 mm 0.13 in3.3 mm
10:30 AM 42.0°F5.6°C 40.9°F4.9°C 96% 1.2 mph NNW1.9 kmh NNW 3.5 mph5.6 kmh 26.29 in890.3 mb - 0.03 in0.8 mm 0.13 in3.3 mm
10:35 AM 41.0°F5.0°C 39.9°F4.4°C 96% 1.2 mph N1.9 kmh N 3.5 mph5.6 kmh 26.29 in890.3 mb - 0.03 in0.8 mm 0.14 in3.6 mm
10:40 AM 41.0°F5.0°C 39.9°F4.4°C 96% 2.3 mph N3.7 kmh N 3.5 mph5.6 kmh 26.28 in889.9 mb - 0.03 in0.8 mm 0.14 in3.6 mm
10:45 AM 41.0°F5.0°C 40.2°F4.6°C 97% 2.3 mph NW3.7 kmh NW 3.5 mph5.6 kmh 26.28 in889.9 mb - 0.03 in0.8 mm 0.14 in3.6 mm
10:50 AM 41.0°F5.0°C 40.2°F4.6°C 97% Calm Calm -- 26.28 in889.9 mb - 0.03 in0.8 mm 0.14 in3.6 mm
10:55 AM 41.0°F5.0°C 39.7°F4.3°C 95% 2.3 mph N3.7 kmh N 2.3 mph3.7 kmh 26.28 in889.9 mb - 0.03 in0.8 mm 0.14 in3.6 mm
11:00 AM 42.0°F5.6°C 40.1°F4.5°C 93% 2.3 mph NW3.7 kmh NW 2.3 mph3.7 kmh 26.28 in889.9 mb - 0.03 in0.8 mm 0.14 in3.6 mm
11:10 AM 42.0°F5.6°C 40.4°F4.7°C 94% 3.5 mph W5.6 kmh W 6.9 mph11.1 kmh 26.28 in889.9 mb - 0.04 in1.0 mm 0.16 in4.1 mm
11:15 AM 42.0°F5.6°C 40.9°F4.9°C 96% 3.5 mph WNW5.6 kmh WNW 6.9 mph11.1 kmh 26.29 in890.3 mb - 0.04 in1.0 mm 0.17 in4.3 mm
11:20 AM 41.0°F5.0°C 40.2°F4.6°C 97% 3.5 mph NW5.6 kmh NW 5.8 mph9.3 kmh 26.29 in890.3 mb - 0.04 in1.0 mm 0.17 in4.3 mm
11:25 AM 41.0°F5.0°C 39.9°F4.4°C 96% 2.3 mph NW3.7 kmh NW 2.3 mph3.7 kmh 26.29 in890.3 mb - 0.04 in1.0 mm 0.17 in4.3 mm
11:30 AM 41.0°F5.0°C 39.9°F4.4°C 96% 1.2 mph NW1.9 kmh NW 1.2 mph1.9 kmh 26.28 in889.9 mb - 0.04 in1.0 mm 0.17 in4.3 mm
11:35 AM 41.0°F5.0°C 39.9°F4.4°C 96% Calm Calm -- 26.30 in890.6 mb - 0.05 in1.3 mm 0.18 in4.6 mm
11:40 AM 41.0°F5.0°C 39.9°F4.4°C 96% Calm Calm 1.2 mph1.9 kmh 26.30 in890.6 mb - 0.04 in1.0 mm 0.18 in4.6 mm
11:45 AM 41.0°F5.0°C 39.9°F4.4°C 96% 2.3 mph NW3.7 kmh NW 3.5 mph5.6 kmh 26.30 in890.6 mb - 0.04 in1.0 mm 0.18 in4.6 mm
11:50 AM 41.0°F5.0°C 40.2°F4.6°C 97% Calm Calm -- 26.30 in890.6 mb - 0.05 in1.3 mm 0.19 in4.8 mm
11:55 AM 41.0°F5.0°C 40.2°F4.6°C 97% Calm Calm -- 26.31 in891.0 mb - 0.05 in1.3 mm 0.19 in4.8 mm
12:00 PM 41.0°F5.0°C 39.9°F4.4°C 96% Calm Calm 2.3 mph3.7 kmh 26.31 in891.0 mb - 0.06 in1.5 mm 0.20 in5.1 mm
12:10 PM 41.0°F5.0°C 39.7°F4.3°C 95% 1.2 mph N1.9 kmh N 2.3 mph3.7 kmh 26.32 in891.3 mb - 0.06 in1.5 mm 0.22 in5.6 mm
12:15 PM 41.0°F5.0°C 39.9°F4.4°C 96% Calm Calm 1.2 mph1.9 kmh 26.32 in891.3 mb - 0.07 in1.8 mm 0.23 in5.8 mm
12:20 PM 41.0°F5.0°C 40.2°F4.6°C 97% 2.3 mph NW3.7 kmh NW 2.3 mph3.7 kmh 26.32 in891.3 mb - 0.07 in1.8 mm 0.24 in6.1 mm
12:25 PM 41.0°F5.0°C 40.5°F4.7°C 98% 1.2 mph N1.9 kmh N 2.3 mph3.7 kmh 26.33 in891.6 mb - 0.08 in2.0 mm 0.25 in6.4 mm
12:30 PM 41.0°F5.0°C 40.5°F4.7°C 98% 2.3 mph WNW3.7 kmh WNW 2.3 mph3.7 kmh 26.32 in891.3 mb - 0.09 in2.3 mm 0.26 in6.6 mm
12:35 PM 41.0°F5.0°C 40.5°F4.7°C 98% 2.3 mph WNW3.7 kmh WNW 2.3 mph3.7 kmh 26.32 in891.3 mb - 0.08 in2.0 mm 0.26 in6.6 mm
12:40 PM 41.0°F5.0°C 40.2°F4.6°C 97% 2.3 mph WNW3.7 kmh WNW 2.3 mph3.7 kmh 26.32 in891.3 mb - 0.08 in2.0 mm 0.26 in6.6 mm
12:45 PM 40.0°F4.4°C 39.5°F4.2°C 98% Calm Calm -- 26.32 in891.3 mb - 0.08 in2.0 mm 0.26 in6.6 mm
12:50 PM 40.0°F4.4°C 39.5°F4.2°C 98% 2.3 mph NW3.7 kmh NW 3.5 mph5.6 kmh 26.32 in891.3 mb - 0.07 in1.8 mm 0.26 in6.6 mm
12:55 PM 40.0°F4.4°C 39.5°F4.2°C 98% 1.2 mph NNW1.9 kmh NNW 1.2 mph1.9 kmh 26.32 in891.3 mb - 0.07 in1.8 mm 0.26 in6.6 mm
01:00 PM 40.0°F4.4°C 39.5°F4.2°C 98% 1.2 mph NNW1.9 kmh NNW 1.2 mph1.9 kmh 26.33 in891.6 mb - 0.07 in1.8 mm 0.26 in6.6 mm
01:10 PM 40.0°F4.4°C 39.5°F4.2°C 98% Calm Calm 1.2 mph1.9 kmh 26.33 in891.6 mb - 0.05 in1.3 mm 0.27 in6.9 mm
01:15 PM 40.0°F4.4°C 39.5°F4.2°C 98% 3.5 mph W5.6 kmh W 3.5 mph5.6 kmh 26.33 in891.6 mb - 0.05 in1.3 mm 0.28 in7.1 mm
01:20 PM 40.0°F4.4°C 39.5°F4.2°C 98% 1.2 mph WNW1.9 kmh WNW 3.5 mph5.6 kmh 26.33 in891.6 mb - 0.05 in1.3 mm 0.29 in7.4 mm
01:25 PM 40.0°F4.4°C 39.5°F4.2°C 98% 1.2 mph NW1.9 kmh NW 2.3 mph3.7 kmh 26.33 in891.6 mb - 0.04 in1.0 mm 0.29 in7.4 mm
01:30 PM 40.0°F4.4°C 39.5°F4.2°C 98% 1.2 mph NW1.9 kmh NW 2.3 mph3.7 kmh 26.33 in891.6 mb - 0.03 in0.8 mm 0.29 in7.4 mm
01:35 PM 41.0°F5.0°C 40.2°F4.6°C 97% 2.3 mph N3.7 kmh N 3.5 mph5.6 kmh 26.33 in891.6 mb - 0.03 in0.8 mm 0.29 in7.4 mm
01:40 PM 41.0°F5.0°C 39.9°F4.4°C 96% 2.3 mph NNE3.7 kmh NNE 3.5 mph5.6 kmh 26.32 in891.3 mb - 0.03 in0.8 mm 0.29 in7.4 mm
01:45 PM 41.0°F5.0°C 39.9°F4.4°C 96% 2.3 mph N3.7 kmh N 3.5 mph5.6 kmh 26.32 in891.3 mb - 0.03 in0.8 mm 0.29 in7.4 mm
01:50 PM 41.0°F5.0°C 39.7°F4.3°C 95% 2.3 mph NNW3.7 kmh NNW 2.3 mph3.7 kmh 26.32 in891.3 mb - 0.04 in1.0 mm 0.30 in7.6 mm
01:55 PM 41.0°F5.0°C 39.9°F4.4°C 96% 1.2 mph NNW1.9 kmh NNW 1.2 mph1.9 kmh 26.32 in891.3 mb - 0.04 in1.0 mm 0.30 in7.6 mm
02:00 PM 41.0°F5.0°C 39.4°F4.1°C 94% 3.5 mph N5.6 kmh N 3.5 mph5.6 kmh 26.32 in891.3 mb - 0.04 in1.0 mm 0.30 in7.6 mm
02:10 PM 41.0°F5.0°C 39.7°F4.3°C 95% 1.2 mph NW1.9 kmh NW 1.2 mph1.9 kmh 26.33 in891.6 mb - 0.03 in0.8 mm 0.30 in7.6 mm
02:15 PM 41.0°F5.0°C 39.9°F4.4°C 96% 1.2 mph NNW1.9 kmh NNW 1.2 mph1.9 kmh 26.33 in891.6 mb - 0.02 in0.5 mm 0.30 in7.6 mm
02:20 PM 40.6°F4.8°C 39.5°F4.2°C 96% 1.2 mph NW1.9 kmh NW 2.3 mph3.7 kmh 26.33 in891.6 mb - 0.01 in0.3 mm 0.30 in7.6 mm
02:25 PM 40.0°F4.4°C 39.0°F3.9°C 96% 2.3 mph NW3.7 kmh NW 2.3 mph3.7 kmh 26.33 in891.6 mb - 0.01 in0.3 mm 0.30 in7.6 mm
02:30 PM 41.0°F5.0°C 40.2°F4.6°C 97% Calm Calm 1.2 mph1.9 kmh 26.33 in891.6 mb - 0.01 in0.3 mm 0.30 in7.6 mm
02:35 PM 41.0°F5.0°C 39.9°F4.4°C 96% 1.2 mph N1.9 kmh N 2.3 mph3.7 kmh 26.33 in891.6 mb - 0.01 in0.3 mm 0.30 in7.6 mm
02:40 PM 41.0°F5.0°C 39.7°F4.3°C 95% 1.2 mph NNW1.9 kmh NNW 2.3 mph3.7 kmh 26.33 in891.6 mb - 0.01 in0.3 mm 0.30 in7.6 mm
02:45 PM 41.0°F5.0°C 39.4°F4.1°C 94% 1.2 mph NW1.9 kmh NW 2.3 mph3.7 kmh 26.33 in891.6 mb - 0.01 in0.3 mm 0.30 in7.6 mm
02:50 PM 41.0°F5.0°C 39.9°F4.4°C 96% Calm Calm -- 26.33 in891.6 mb - 0.00 in0.0 mm 0.30 in7.6 mm
02:55 PM 41.0°F5.0°C 39.4°F4.1°C 94% 2.3 mph NNW3.7 kmh NNW 3.5 mph5.6 kmh 26.34 in892.0 mb - 0.00 in0.0 mm 0.30 in7.6 mm
03:00 PM 41.0°F5.0°C 39.1°F3.9°C 93% Calm Calm -- 26.35 in892.3 mb - 0.00 in0.0 mm 0.30 in7.6 mm
03:10 PM 41.0°F5.0°C 39.4°F4.1°C 94% Calm Calm 5.8 mph9.3 kmh 26.35 in892.3 mb - 0.00 in0.0 mm 0.30 in7.6 mm
03:15 PM 41.0°F5.0°C 39.4°F4.1°C 94% Calm Calm -- 26.35 in892.3 mb - 0.01 in0.3 mm 0.31 in7.9 mm
03:20 PM 41.0°F5.0°C 39.7°F4.3°C 95% Calm Calm 1.2 mph1.9 kmh 26.35 in892.3 mb - 0.01 in0.3 mm 0.31 in7.9 mm
03:25 PM 41.0°F5.0°C 39.7°F4.3°C 95% Calm Calm 1.2 mph1.9 kmh 26.35 in892.3 mb - 0.01 in0.3 mm 0.31 in7.9 mm
03:30 PM 41.0°F5.0°C 39.7°F4.3°C 95% 2.3 mph NW3.7 kmh NW 2.3 mph3.7 kmh 26.36 in892.7 mb - 0.02 in0.5 mm 0.32 in8.1 mm
03:35 PM 41.0°F5.0°C 39.7°F4.3°C 95% 1.2 mph NW1.9 kmh NW 1.2 mph1.9 kmh 26.36 in892.7 mb - 0.05 in1.3 mm 0.35 in8.9 mm
03:40 PM 41.0°F5.0°C 39.7°F4.3°C 95% 1.2 mph N1.9 kmh N 1.2 mph1.9 kmh 26.37 in893.0 mb - 0.05 in1.3 mm 0.35 in8.9 mm
03:45 PM 41.0°F5.0°C 39.7°F4.3°C 95% Calm Calm -- 26.36 in892.7 mb - 0.06 in1.5 mm 0.36 in9.1 mm
03:50 PM 41.0°F5.0°C 39.7°F4.3°C 95% 1.2 mph NNW1.9 kmh NNW 1.2 mph1.9 kmh 26.36 in892.7 mb - 0.07 in1.8 mm 0.37 in9.4 mm
03:55 PM 41.0°F5.0°C 39.7°F4.3°C 95% Calm Calm -- 26.37 in893.0 mb - 0.07 in1.8 mm 0.37 in9.4 mm
04:00 PM 41.0°F5.0°C 39.7°F4.3°C 95% Calm Calm -- 26.37 in893.0 mb - 0.08 in2.0 mm 0.38 in9.7 mm
04:10 PM 41.0°F5.0°C 39.4°F4.1°C 94% Calm Calm 1.2 mph1.9 kmh 26.36 in892.7 mb - 0.08 in2.0 mm 0.38 in9.7 mm
04:15 PM 41.0°F5.0°C 39.4°F4.1°C 94% Calm Calm 1.2 mph1.9 kmh 26.36 in892.7 mb - 0.08 in2.0 mm 0.38 in9.7 mm
04:20 PM 41.0°F5.0°C 39.7°F4.3°C 95% Calm Calm -- 26.37 in893.0 mb - 0.07 in1.8 mm 0.38 in9.7 mm
04:25 PM 41.0°F5.0°C 39.9°F4.4°C 96% Calm Calm -- 26.38 in893.3 mb - 0.07 in1.8 mm 0.38 in9.7 mm
04:30 PM 41.0°F5.0°C 39.9°F4.4°C 96% Calm Calm -- 26.38 in893.3 mb - 0.06 in1.5 mm 0.38 in9.7 mm
04:35 PM 41.0°F5.0°C 40.2°F4.6°C 97% Calm Calm -- 26.38 in893.3 mb - 0.03 in0.8 mm 0.38 in9.7 mm
04:40 PM 40.0°F4.4°C 39.0°F3.9°C 96% Calm Calm -- 26.38 in893.3 mb - 0.04 in1.0 mm 0.39 in9.9 mm
04:45 PM 40.0°F4.4°C 39.2°F4.0°C 97% Calm Calm -- 26.38 in893.3 mb - 0.04 in1.0 mm 0.40 in10.2 mm
04:50 PM 40.0°F4.4°C 39.2°F4.0°C 97% Calm Calm -- 26.39 in893.7 mb - 0.04 in1.0 mm 0.41 in10.4 mm
04:55 PM 40.0°F4.4°C 39.2°F4.0°C 97% Calm Calm -- 26.39 in893.7 mb - 0.05 in1.3 mm 0.42 in10.7 mm
05:00 PM 40.1°F4.5°C 39.3°F4.1°C 97% Calm Calm -- 26.39 in893.7 mb - 0.06 in1.5 mm 0.44 in11.2 mm
05:10 PM 41.0°F5.0°C 40.2°F4.6°C 97% Calm Calm 1.2 mph1.9 kmh 26.37 in893.0 mb - 0.07 in1.8 mm 0.45 in11.4 mm
05:15 PM 41.0°F5.0°C 40.5°F4.7°C 98% Calm Calm -- 26.38 in893.3 mb - 0.08 in2.0 mm 0.46 in11.7 mm
05:20 PM 41.0°F5.0°C 40.5°F4.7°C 98% Calm Calm -- 26.38 in893.3 mb - 0.08 in2.0 mm 0.46 in11.7 mm
05:25 PM 40.0°F4.4°C 39.5°F4.2°C 98% Calm Calm -- 26.38 in893.3 mb - 0.09 in2.3 mm 0.47 in11.9 mm
05:30 PM 40.0°F4.4°C 39.5°F4.2°C 98% 1.2 mph NW1.9 kmh NW 1.2 mph1.9 kmh 26.38 in893.3 mb - 0.10 in2.5 mm 0.48 in12.2 mm
05:35 PM 40.0°F4.4°C 39.5°F4.2°C 98% 1.2 mph NW1.9 kmh NW 1.2 mph1.9 kmh 26.39 in893.7 mb - 0.11 in2.8 mm 0.49 in12.4 mm
05:40 PM 40.0°F4.4°C 39.5°F4.2°C 98% Calm Calm 1.2 mph1.9 kmh 26.39 in893.7 mb - 0.10 in2.5 mm 0.49 in12.4 mm
05:45 PM 40.0°F4.4°C 39.5°F4.2°C 98% Calm Calm -- 26.39 in893.7 mb - 0.10 in2.5 mm 0.50 in12.7 mm
05:50 PM 40.0°F4.4°C 39.7°F4.3°C 99% Calm Calm -- 26.39 in893.7 mb - 0.09 in2.3 mm 0.50 in12.7 mm
05:55 PM 40.0°F4.4°C 39.7°F4.3°C 99% Calm Calm -- 26.39 in893.7 mb - 0.09 in2.3 mm 0.50 in12.7 mm
06:00 PM 40.0°F4.4°C 39.7°F4.3°C 99% Calm Calm -- 26.39 in893.7 mb - 0.08 in2.0 mm 0.50 in12.7 mm
06:10 PM 40.0°F4.4°C 39.5°F4.2°C 98% Calm Calm -- 26.39 in893.7 mb - 0.05 in1.3 mm 0.50 in12.7 mm
06:15 PM 40.0°F4.4°C 39.0°F3.9°C 96% 1.2 mph NNW1.9 kmh NNW 1.2 mph1.9 kmh 26.40 in894.0 mb - 0.04 in1.0 mm 0.50 in12.7 mm
06:20 PM 40.0°F4.4°C 39.2°F4.0°C 97% Calm Calm -- 26.40 in894.0 mb - 0.04 in1.0 mm 0.50 in12.7 mm
06:25 PM 40.0°F4.4°C 39.5°F4.2°C 98% Calm Calm 1.2 mph1.9 kmh 26.40 in894.0 mb - 0.03 in0.8 mm 0.50 in12.7 mm
06:30 PM 40.0°F4.4°C 39.5°F4.2°C 98% Calm Calm 1.2 mph1.9 kmh 26.40 in894.0 mb - 0.02 in0.5 mm 0.50 in12.7 mm
06:35 PM 40.0°F4.4°C 39.2°F4.0°C 97% Calm Calm 1.2 mph1.9 kmh 26.41 in894.3 mb - 0.01 in0.3 mm 0.50 in12.7 mm
06:40 PM 40.0°F4.4°C 39.2°F4.0°C 97% Calm Calm -- 26.41 in894.3 mb - 0.01 in0.3 mm 0.50 in12.7 mm
06:45 PM 40.0°F4.4°C 39.2°F4.0°C 97% Calm Calm -- 26.41 in894.3 mb - 0.01 in0.3 mm 0.50 in12.7 mm
06:50 PM 40.0°F4.4°C 39.0°F3.9°C 96% Calm Calm -- 26.41 in894.3 mb - 0.00 in0.0 mm 0.50 in12.7 mm
06:55 PM 41.0°F5.0°C 39.7°F4.3°C 95% 1.2 mph N1.9 kmh N 1.2 mph1.9 kmh 26.42 in894.7 mb - 0.00 in0.0 mm 0.50 in12.7 mm
07:00 PM 41.0°F5.0°C 39.4°F4.1°C 94% 1.2 mph NNW1.9 kmh NNW 1.2 mph1.9 kmh 26.41 in894.3 mb - 0.01 in0.3 mm 0.51 in13.0 mm
07:10 PM 40.0°F4.4°C 39.0°F3.9°C 96% Calm Calm -- 26.42 in894.7 mb - 0.01 in0.3 mm 0.51 in13.0 mm
07:15 PM 40.0°F4.4°C 39.0°F3.9°C 96% Calm Calm 1.2 mph1.9 kmh 26.42 in894.7 mb - 0.01 in0.3 mm 0.51 in13.0 mm
07:20 PM 40.0°F4.4°C 39.2°F4.0°C 97% Calm Calm 1.2 mph1.9 kmh 26.42 in894.7 mb - 0.01 in0.3 mm 0.51 in13.0 mm
07:25 PM 40.0°F4.4°C 39.2°F4.0°C 97% Calm Calm -- 26.43 in895.0 mb - 0.01 in0.3 mm 0.51 in13.0 mm
07:30 PM 40.0°F4.4°C 39.2°F4.0°C 97% Calm Calm -- 26.42 in894.7 mb - 0.01 in0.3 mm 0.51 in13.0 mm
07:35 PM 40.0°F4.4°C 39.0°F3.9°C 96% Calm Calm 1.2 mph1.9 kmh 26.42 in894.7 mb - 0.01 in0.3 mm 0.51 in13.0 mm
07:40 PM 40.0°F4.4°C 38.7°F3.7°C 95% 1.2 mph NW1.9 kmh NW 1.2 mph1.9 kmh 26.43 in895.0 mb - 0.01 in0.3 mm 0.51 in13.0 mm
07:45 PM 40.0°F4.4°C 39.0°F3.9°C 96% Calm Calm -- 26.43 in895.0 mb - 0.02 in0.5 mm 0.52 in13.2 mm
07:50 PM 39.0°F3.9°C 38.0°F3.3°C 96% Calm Calm -- 26.44 in895.4 mb - 0.02 in0.5 mm 0.52 in13.2 mm
07:55 PM 39.0°F3.9°C 38.2°F3.4°C 97% Calm Calm -- 26.43 in895.0 mb - 0.02 in0.5 mm 0.52 in13.2 mm
08:00 PM 39.0°F3.9°C 38.2°F3.4°C 97% Calm Calm -- 26.43 in895.0 mb - 0.01 in0.3 mm 0.52 in13.2 mm
08:10 PM 39.0°F3.9°C 38.5°F3.6°C 98% Calm Calm -- 26.43 in895.0 mb - 0.01 in0.3 mm 0.52 in13.2 mm
08:15 PM 39.0°F3.9°C 38.5°F3.6°C 98% Calm Calm -- 26.43 in895.0 mb - 0.01 in0.3 mm 0.52 in13.2 mm
08:20 PM 39.0°F3.9°C 38.2°F3.4°C 97% Calm Calm -- 26.44 in895.4 mb - 0.01 in0.3 mm 0.52 in13.2 mm
08:25 PM 39.0°F3.9°C 38.2°F3.4°C 97% Calm Calm -- 26.44 in895.4 mb - 0.01 in0.3 mm 0.52 in13.2 mm
08:30 PM 39.0°F3.9°C 38.2°F3.4°C 97% Calm Calm -- 26.44 in895.4 mb - 0.01 in0.3 mm 0.52 in13.2 mm
08:35 PM 39.0°F3.9°C 38.2°F3.4°C 97% Calm Calm -- 26.44 in895.4 mb - 0.01 in0.3 mm 0.52 in13.2 mm
08:40 PM 39.0°F3.9°C 38.5°F3.6°C 98% Calm Calm -- 26.44 in895.4 mb - 0.01 in0.3 mm 0.52 in13.2 mm
08:45 PM 39.0°F3.9°C 38.5°F3.6°C 98% Calm Calm -- 26.44 in895.4 mb - 0.00 in0.0 mm 0.52 in13.2 mm
08:50 PM 39.0°F3.9°C 38.5°F3.6°C 98% Calm Calm -- 26.44 in895.4 mb - 0.00 in0.0 mm 0.52 in13.2 mm
08:55 PM 39.0°F3.9°C 38.5°F3.6°C 98% Calm Calm -- 26.45 in895.7 mb - 0.00 in0.0 mm 0.52 in13.2 mm
09:00 PM 39.0°F3.9°C 38.5°F3.6°C 98% Calm Calm -- 26.45 in895.7 mb - 0.00 in0.0 mm 0.52 in13.2 mm
09:10 PM 39.0°F3.9°C 38.5°F3.6°C 98% Calm Calm -- 26.44 in895.4 mb - 0.00 in0.0 mm 0.52 in13.2 mm
09:15 PM 39.0°F3.9°C 38.5°F3.6°C 98% Calm Calm -- 26.45 in895.7 mb - 0.00 in0.0 mm 0.52 in13.2 mm
09:20 PM 39.0°F3.9°C 38.5°F3.6°C 98% Calm Calm -- 26.46 in896.0 mb - 0.00 in0.0 mm 0.52 in13.2 mm
09:25 PM 39.0°F3.9°C 38.5°F3.6°C 98% Calm Calm -- 26.45 in895.7 mb - 0.00 in0.0 mm 0.52 in13.2 mm
09:30 PM 39.0°F3.9°C 38.5°F3.6°C 98% Calm Calm -- 26.46 in896.0 mb - 0.00 in0.0 mm 0.52 in13.2 mm
09:35 PM 39.0°F3.9°C 38.5°F3.6°C 98% Calm Calm -- 26.45 in895.7 mb - 0.01 in0.3 mm 0.53 in13.5 mm
09:40 PM 39.0°F3.9°C 38.5°F3.6°C 98% Calm Calm -- 26.45 in895.7 mb - 0.02 in0.5 mm 0.54 in13.7 mm
09:45 PM 39.0°F3.9°C 38.7°F3.7°C 99% Calm Calm -- 26.45 in895.7 mb - 0.02 in0.5 mm 0.54 in13.7 mm
09:50 PM 39.0°F3.9°C 38.7°F3.7°C 99% Calm Calm -- 26.45 in895.7 mb - 0.03 in0.8 mm 0.55 in14.0 mm
09:55 PM 39.0°F3.9°C 38.7°F3.7°C 99% Calm Calm -- 26.45 in895.7 mb - 0.03 in0.8 mm 0.55 in14.0 mm
10:00 PM 39.0°F3.9°C 38.7°F3.7°C 99% Calm Calm -- 26.45 in895.7 mb - 0.03 in0.8 mm 0.55 in14.0 mm
10:10 PM 39.0°F3.9°C 38.5°F3.6°C 98% Calm Calm -- 26.46 in896.0 mb - 0.03 in0.8 mm 0.55 in14.0 mm
10:15 PM 39.0°F3.9°C 38.5°F3.6°C 98% Calm Calm -- 26.46 in896.0 mb - 0.03 in0.8 mm 0.55 in14.0 mm
10:20 PM 39.0°F3.9°C 38.5°F3.6°C 98% Calm Calm -- 26.46 in896.0 mb - 0.03 in0.8 mm 0.55 in14.0 mm
10:25 PM 39.0°F3.9°C 38.7°F3.7°C 99% Calm Calm -- 26.46 in896.0 mb - 0.04 in1.0 mm 0.56 in14.2 mm
10:30 PM 38.0°F3.3°C 37.7°F3.2°C 99% Calm Calm -- 26.46 in896.0 mb - 0.04 in1.0 mm 0.56 in14.2 mm
10:35 PM 38.0°F3.3°C 37.7°F3.2°C 99% Calm Calm -- 26.46 in896.0 mb - 0.03 in0.8 mm 0.56 in14.2 mm
10:40 PM 38.0°F3.3°C 37.7°F3.2°C 99% Calm Calm -- 26.46 in896.0 mb - 0.02 in0.5 mm 0.56 in14.2 mm
10:45 PM 38.0°F3.3°C 37.7°F3.2°C 99% Calm Calm -- 26.47 in896.4 mb - 0.02 in0.5 mm 0.56 in14.2 mm
10:50 PM 39.0°F3.9°C 38.7°F3.7°C 99% Calm Calm -- 26.46 in896.0 mb - 0.02 in0.5 mm 0.56 in14.2 mm
10:55 PM 38.0°F3.3°C 37.5°F3.1°C 98% Calm Calm -- 26.46 in896.0 mb - 0.01 in0.3 mm 0.56 in14.2 mm
11:00 PM 38.0°F3.3°C 37.7°F3.2°C 99% Calm Calm -- 26.46 in896.0 mb - 0.01 in0.3 mm 0.56 in14.2 mm
11:10 PM 37.0°F2.8°C 36.7°F2.6°C 99% Calm Calm -- 26.46 in896.0 mb - 0.01 in0.3 mm 0.56 in14.2 mm
11:15 PM 38.0°F3.3°C 37.7°F3.2°C 99% Calm Calm -- 26.46 in896.0 mb - 0.01 in0.3 mm 0.56 in14.2 mm
11:20 PM 38.0°F3.3°C 37.7°F3.2°C 99% Calm Calm -- 26.46 in896.0 mb - 0.01 in0.3 mm 0.56 in14.2 mm
11:25 PM 37.6°F3.1°C 37.3°F2.9°C 99% Calm Calm -- 26.46 in896.0 mb - 0.00 in0.0 mm 0.56 in14.2 mm
11:30 PM 37.0°F2.8°C 36.7°F2.6°C 99% Calm Calm -- 26.46 in896.0 mb - 0.00 in0.0 mm 0.56 in14.2 mm
11:35 PM 37.0°F2.8°C 36.7°F2.6°C 99% Calm Calm -- 26.46 in896.0 mb - 0.00 in0.0 mm 0.56 in14.2 mm
11:40 PM 38.0°F3.3°C 37.7°F3.2°C 99% Calm Calm -- 26.47 in896.4 mb - 0.00 in0.0 mm 0.56 in14.2 mm
11:45 PM 38.0°F3.3°C 37.7°F3.2°C 99% Calm Calm -- 26.46 in896.0 mb - 0.00 in0.0 mm 0.56 in14.2 mm
11:50 PM 38.0°F3.3°C 37.7°F3.2°C 99% Calm Calm -- 26.46 in896.0 mb - 0.00 in0.0 mm 0.56 in14.2 mm
11:55 PM 38.0°F3.3°C 37.5°F3.1°C 98% Calm Calm -- 26.47 in896.4 mb - 0.00 in0.0 mm 0.56 in14.2 mm